Time;durP1;ratioP1;P1;durP2;ratioP2;P2;SDS_P1;SDS_P2;PMS_P1;PMS_P2;Temp;Humidity;BMP_temperature;BMP_pressure;BME280_temperature;BME280_humidity;BME280_pressure;Samples;Min_cycle;Max_cycle;Signal;HPM_P1;HPM_P2
2022/11/03 00:01:09;;;;;;;13.20;2.60;;;10.70;99.90;;;;;;5120949;27;20042;-72
2022/11/03 00:03:35;;;;;;;18.65;2.28;;;10.80;99.90;;;;;;5145530;27;20397;-73
2022/11/03 00:06:04;;;;;;;12.50;2.55;;;10.70;99.90;;;;;;5144289;27;20474;-73
2022/11/03 00:08:38;;;;;;;7.57;2.28;;;10.70;99.90;;;;;;5130079;27;20051;-73
2022/11/03 00:11:11;;;;;;;13.23;2.88;;;10.80;99.90;;;;;;5141412;27;20086;-73
2022/11/03 00:13:40;;;;;;;13.35;2.22;;;10.80;99.90;;;;;;5146739;27;20049;-73
2022/11/03 00:16:07;;;;;;;10.40;1.67;;;10.80;99.90;;;;;;5104146;27;20043;-72
2022/11/03 00:18:32;;;;;;;14.55;2.13;;;10.80;99.90;;;;;;5140137;27;20108;-73
2022/11/03 00:21:10;;;;;;;10.70;2.30;;;11.20;99.90;;;;;;5147580;27;20465;-72
2022/11/03 00:23:38;;;;;;;13.60;2.58;;;10.70;99.90;;;;;;5110465;27;20483;-73
2022/11/03 00:26:11;;;;;;;14.35;3.80;;;11.90;99.90;;;;;;5112273;27;20557;-72
2022/11/03 00:28:48;;;;;;;10.82;2.72;;;10.70;99.90;;;;;;5113006;27;20043;-72
2022/11/03 00:31:22;;;;;;;13.38;2.17;;;11.50;99.90;;;;;;5114109;27;20057;-73
2022/11/03 00:33:49;;;;;;;12.48;2.38;;;10.70;99.90;;;;;;5124093;27;20087;-72
2022/11/03 00:36:20;;;;;;;14.15;2.85;;;10.70;99.90;;;;;;5145885;27;20074;-72
2022/11/03 00:38:46;;;;;;;13.43;2.35;;;10.70;99.90;;;;;;5136709;27;20053;-72
2022/11/03 00:41:13;;;;;;;12.82;2.30;;;10.70;99.90;;;;;;5112330;27;20065;-72
2022/11/03 00:43:39;;;;;;;10.50;2.30;;;10.70;99.90;;;;;;5121937;27;20039;-73
2022/11/03 00:46:07;;;;;;;13.55;2.15;;;10.70;99.90;;;;;;5128467;27;20053;-72
2022/11/03 00:48:33;;;;;;;9.93;2.20;;;10.80;99.90;;;;;;5128967;27;20623;-72
2022/11/03 00:51:07;;;;;;;10.65;2.60;;;10.70;99.90;;;;;;5143769;27;20171;-72
2022/11/03 00:53:36;;;;;;;13.07;2.47;;;10.70;99.90;;;;;;5141710;27;20043;-73
2022/11/03 00:56:01;;;;;;;13.80;3.03;;;10.60;99.90;;;;;;5131185;27;20045;-72
2022/11/03 00:58:27;;;;;;;9.00;2.15;;;10.60;99.90;;;;;;5131046;27;20134;-73
2022/11/03 01:01:06;;;;;;;16.23;3.13;;;10.60;99.90;;;;;;5128176;27;20039;-73
2022/11/03 01:03:33;;;;;;;11.77;1.90;;;10.60;99.90;;;;;;5117832;27;20081;-74
2022/11/03 01:08:43;;;;;;;16.13;2.75;;;10.60;99.90;;;;;;5126221;27;20051;-73
2022/11/03 01:13:57;;;;;;;12.82;2.65;;;10.50;99.90;;;;;;5139139;27;20100;-73
2022/11/03 01:16:23;;;;;;;11.93;2.53;;;11.00;99.90;;;;;;5128898;27;20608;-71
2022/11/03 01:18:49;;;;;;;14.77;2.55;;;10.60;99.90;;;;;;5142124;27;20583;-71
2022/11/03 01:21:14;;;;;;;10.90;2.40;;;10.50;99.90;;;;;;5111031;27;20121;-73
2022/11/03 01:23:40;;;;;;;9.75;2.05;;;10.50;99.90;;;;;;5140498;27;20122;-72
2022/11/03 01:26:08;;;;;;;13.45;2.08;;;10.50;99.90;;;;;;5126996;27;20389;-72
2022/11/03 01:28:35;;;;;;;12.48;2.38;;;10.40;99.90;;;;;;5127376;27;20526;-72
2022/11/03 01:31:10;;;;;;;15.18;3.08;;;10.40;99.90;;;;;;5106320;27;20043;-73
2022/11/03 01:33:36;;;;;;;9.52;2.00;;;10.40;99.90;;;;;;5106997;27;20082;-71
2022/11/03 01:36:02;;;;;;;12.13;2.75;;;9.60;99.90;;;;;;5132070;27;20122;-71
2022/11/03 01:38:32;;;;;;;10.88;1.75;;;10.40;99.90;;;;;;5118036;27;20137;-72
2022/11/03 01:40:58;;;;;;;11.57;2.55;;;10.40;99.90;;;;;;5144155;27;20049;-71
2022/11/03 01:43:25;;;;;;;11.45;2.10;;;10.60;99.90;;;;;;5144696;27;20451;-73
2022/11/03 01:45:59;;;;;;;14.52;2.25;;;10.80;99.90;;;;;;5145128;27;20524;-72
2022/11/03 01:48:25;;;;;;;13.93;2.13;;;10.90;99.90;;;;;;5100916;27;20096;-72
2022/11/03 01:50:51;;;;;;;9.82;2.60;;;10.40;99.90;;;;;;5133087;27;20038;-72
2022/11/03 01:53:18;;;;;;;14.07;2.75;;;10.30;99.90;;;;;;5144961;27;20085;-73
2022/11/03 01:55:45;;;;;;;11.82;2.83;;;10.40;99.90;;;;;;5117530;27;20043;-72
2022/11/03 01:58:20;;;;;;;7.28;1.63;;;10.30;99.90;;;;;;5135476;27;20378;-73
2022/11/03 02:00:48;;;;;;;13.02;3.08;;;10.20;99.90;;;;;;5144679;27;20096;-73
2022/11/03 02:03:16;;;;;;;14.98;2.25;;;10.20;99.90;;;;;;5134457;27;20039;-73
2022/11/03 02:05:44;;;;;;;9.70;2.13;;;10.20;99.90;;;;;;5143128;27;20121;-72
2022/11/03 02:08:15;;;;;;;15.13;2.95;;;11.20;99.90;;;;;;5145237;27;20038;-73
2022/11/03 02:10:41;;;;;;;17.17;2.42;;;10.30;99.90;;;;;;5146353;27;20041;-72
2022/11/03 02:13:16;;;;;;;15.75;2.50;;;11.50;99.90;;;;;;5112386;27;20185;-74
2022/11/03 02:15:43;;;;;;;14.55;2.72;;;10.20;99.90;;;;;;5111950;27;20477;-72
2022/11/03 02:18:11;;;;;;;10.77;2.40;;;10.20;99.90;;;;;;5149766;27;20104;-72
2022/11/03 02:20:38;;;;;;;16.40;2.40;;;10.20;99.90;;;;;;5133984;27;20038;-72
2022/11/03 02:23:07;;;;;;;15.93;3.00;;;11.50;99.90;;;;;;5137058;27;20546;-73
2022/11/03 02:25:40;;;;;;;15.30;2.35;;;10.30;99.90;;;;;;5147981;27;20444;-73
2022/11/03 02:28:06;;;;;;;14.90;2.13;;;10.30;99.90;;;;;;5110663;27;20043;-73
2022/11/03 02:30:48;;;;;;;12.20;2.58;;;10.30;99.90;;;;;;5113768;27;20316;-73
2022/11/03 02:33:29;;;;;;;11.60;2.30;;;10.30;99.90;;;;;;5125065;27;20057;-72
2022/11/03 02:36:02;;;;;;;18.40;4.25;;;10.30;99.90;;;;;;5126930;27;20557;-73
2022/11/03 02:38:30;;;;;;;12.57;2.33;;;10.30;99.90;;;;;;5127011;27;20031;-73
2022/11/03 02:41:00;;;;;;;12.70;2.63;;;10.30;99.90;;;;;;5106654;27;20045;-73
2022/11/03 02:43:27;;;;;;;18.88;3.13;;;10.30;99.90;;;;;;5106424;27;20298;-73
2022/11/03 02:45:54;;;;;;;12.35;2.85;;;10.30;99.90;;;;;;5123087;27;20050;-71
2022/11/03 02:48:20;;;;;;;14.52;2.35;;;10.30;99.90;;;;;;5125272;27;20478;-71
2022/11/03 02:50:47;;;;;;;15.38;2.47;;;10.40;99.90;;;;;;5123372;27;20062;-72
2022/11/03 02:53:14;;;;;;;15.80;2.40;;;11.30;99.90;;;;;;5126337;27;20122;-71
2022/11/03 02:55:50;;;;;;;18.55;3.38;;;10.40;99.90;;;;;;5123036;27;20043;-71
2022/11/03 02:58:15;;;;;;;14.85;2.30;;;10.40;99.90;;;;;;5125905;27;20117;-71
2022/11/03 03:00:56;;;;;;;16.30;2.88;;;10.50;99.90;;;;;;5124358;27;20043;-71
2022/11/03 03:03:38;;;;;;;17.15;3.10;;;10.40;99.90;;;;;;5103852;27;20039;-71
2022/11/03 03:06:09;;;;;;;9.82;2.22;;;10.40;99.90;;;;;;5120824;27;20110;-72
2022/11/03 03:08:40;;;;;;;12.02;3.05;;;10.40;99.90;;;;;;5128156;27;20436;-72
2022/11/03 03:11:10;;;;;;;15.25;2.53;;;10.60;99.90;;;;;;5124010;27;20110;-72
2022/11/03 03:13:36;;;;;;;12.43;2.03;;;10.40;99.90;;;;;;5116669;27;20061;-72
2022/11/03 03:16:26;;;;;;;16.75;3.15;;;10.40;99.90;;;;;;5121342;27;20502;-71
2022/11/03 03:19:10;;;;;;;8.55;2.15;;;10.40;99.90;;;;;;5106018;27;20125;-72
2022/11/03 03:21:42;;;;;;;13.38;1.80;;;10.70;99.90;;;;;;5120322;27;20467;-72
2022/11/03 03:24:16;;;;;;;16.80;2.20;;;10.40;99.90;;;;;;5120782;27;20082;-71
2022/11/03 03:26:46;;;;;;;12.82;1.77;;;10.50;99.90;;;;;;5120547;27;20090;-71
2022/11/03 03:29:26;;;;;;;12.45;2.47;;;10.50;99.90;;;;;;5119619;27;20035;-71
2022/11/03 03:32:02;;;;;;;7.10;2.03;;;10.40;99.90;;;;;;5129757;27;20047;-71
2022/11/03 03:34:28;;;;;;;7.88;2.00;;;10.50;99.90;;;;;;5141816;27;20095;-71
2022/11/03 03:36:57;;;;;;;10.07;2.03;;;10.50;99.90;;;;;;5132341;27;20505;-72
2022/11/03 03:39:29;;;;;;;18.08;2.60;;;10.50;99.90;;;;;;5142084;27;20043;-72
2022/11/03 03:41:56;;;;;;;12.55;2.75;;;10.50;99.90;;;;;;5115273;27;20486;-72
2022/11/03 03:44:23;;;;;;;12.68;2.42;;;10.50;99.90;;;;;;5141886;27;20125;-72
2022/11/03 03:46:56;;;;;;;14.95;2.60;;;10.70;99.90;;;;;;5134127;27;20070;-72
2022/11/03 03:49:22;;;;;;;11.25;2.70;;;10.50;99.90;;;;;;5115743;27;20049;-72
2022/11/03 03:51:49;;;;;;;11.25;3.08;;;10.50;99.90;;;;;;5115612;27;20050;-71
2022/11/03 03:54:15;;;;;;;11.55;2.28;;;10.50;99.90;;;;;;5144887;27;20049;-72
2022/11/03 03:56:55;;;;;;;15.20;2.70;;;11.50;99.90;;;;;;5128933;27;20162;-72
2022/11/03 03:59:21;;;;;;;15.43;2.40;;;10.50;99.90;;;;;;5139562;27;20126;-72
2022/11/03 04:01:46;;;;;;;14.52;2.35;;;10.50;99.90;;;;;;5134593;27;20125;-72
2022/11/03 04:04:12;;;;;;;10.43;2.53;;;10.50;99.90;;;;;;5144619;27;20035;-72
2022/11/03 04:06:37;;;;;;;11.63;2.80;;;11.00;99.90;;;;;;5143907;27;20130;-72
2022/11/03 04:09:03;;;;;;;12.63;2.03;;;10.40;99.90;;;;;;5111034;27;20039;-72
2022/11/03 04:22:31;;;;;;;9.38;2.38;;;10.40;99.90;;;;;;5141671;27;20046;-72
2022/11/03 04:24:58;;;;;;;12.27;2.53;;;10.40;99.90;;;;;;5123086;27;20096;-72
2022/11/03 04:27:28;;;;;;;18.23;2.95;;;10.40;99.90;;;;;;5126659;27;20123;-72
2022/11/03 04:30:15;;;;;;;9.23;1.98;;;10.40;99.90;;;;;;5128656;27;20072;-72
2022/11/03 04:32:41;;;;;;;13.07;2.47;;;10.40;99.90;;;;;;5140917;27;20544;-71
2022/11/03 04:35:18;;;;;;;9.77;2.28;;;10.40;99.90;;;;;;5144042;27;20031;-71
2022/11/03 04:37:49;;;;;;;9.13;2.15;;;10.40;99.90;;;;;;5131348;27;20117;-72
2022/11/03 04:40:16;;;;;;;12.85;2.75;;;11.30;99.90;;;;;;5108806;27;20470;-72
2022/11/03 04:42:43;;;;;;;9.88;1.98;;;10.40;99.90;;;;;;5112844;27;20047;-72
2022/11/03 04:45:22;;;;;;;13.55;2.72;;;10.60;99.90;;;;;;5131902;27;20038;-72
2022/11/03 04:47:48;;;;;;;10.23;2.00;;;11.30;99.90;;;;;;5123674;27;20045;-71
2022/11/03 04:50:18;;;;;;;14.13;2.47;;;10.80;99.90;;;;;;5130733;27;20963;-71
2022/11/03 04:52:45;;;;;;;14.18;2.60;;;10.40;99.90;;;;;;5139183;27;20039;-72
2022/11/03 04:55:15;;;;;;;10.65;2.70;;;10.40;99.90;;;;;;5130426;27;20058;-71
2022/11/03 04:57:41;;;;;;;13.98;2.80;;;10.40;99.90;;;;;;5108617;27;20061;-72
2022/11/03 05:00:13;;;;;;;10.85;2.28;;;10.40;99.90;;;;;;5103711;27;20042;-72
2022/11/03 05:02:39;;;;;;;10.90;2.67;;;10.40;99.90;;;;;;5141201;27;20051;-71
2022/11/03 05:05:18;;;;;;;10.32;1.65;;;10.40;99.90;;;;;;5130470;27;20090;-72
2022/11/03 05:07:49;;;;;;;16.10;3.55;;;10.40;99.90;;;;;;5141492;27;20043;-72
2022/11/03 05:10:21;;;;;;;18.92;2.92;;;10.40;99.90;;;;;;5140486;27;20404;-71
2022/11/03 05:12:47;;;;;;;20.90;3.25;;;10.40;99.90;;;;;;5116762;27;20092;-73
2022/11/03 05:15:35;;;;;;;10.48;2.00;;;10.40;99.90;;;;;;5146874;27;20042;-72
2022/11/03 05:18:37;;;;;;;11.85;2.55;;;10.40;99.90;;;;;;5114381;27;20065;-73
2022/11/03 05:21:06;;;;;;;11.38;2.30;;;10.40;99.90;;;;;;5120066;27;20070;-73
2022/11/03 05:23:39;;;;;;;10.73;2.65;;;10.40;99.90;;;;;;5134255;27;20039;-72
2022/11/03 05:26:12;;;;;;;10.30;2.00;;;11.10;99.90;;;;;;5112970;27;20503;-72
2022/11/03 05:28:41;;;;;;;13.38;2.55;;;10.40;99.90;;;;;;5132664;27;20039;-73
2022/11/03 05:31:29;;;;;;;6.30;2.28;;;10.80;99.90;;;;;;5145372;27;20486;-73
2022/11/03 05:34:00;;;;;;;16.17;1.90;;;10.40;99.90;;;;;;5144263;27;20054;-72
2022/11/03 05:36:29;;;;;;;17.67;3.42;;;10.40;99.90;;;;;;5141627;27;20072;-72
2022/11/03 05:39:11;;;;;;;11.75;2.60;;;10.50;99.90;;;;;;5135629;27;20068;-72
2022/11/03 05:41:37;;;;;;;13.52;2.60;;;10.40;99.90;;;;;;5142808;27;20497;-73
2022/11/03 05:44:33;;;;;;;17.60;7.18;;;10.40;99.90;;;;;;5143327;27;20065;-73
2022/11/03 05:47:00;;;;;;;13.52;2.47;;;10.40;99.90;;;;;;5129210;27;20043;-73
2022/11/03 05:49:28;;;;;;;10.85;2.38;;;10.50;99.90;;;;;;5143028;27;20031;-72
2022/11/03 05:51:54;;;;;;;11.45;3.35;;;10.40;99.90;;;;;;5143047;27;20050;-73
2022/11/03 05:54:23;;;;;;;13.15;2.00;;;10.40;99.90;;;;;;5142839;27;20039;-72
2022/11/03 05:56:49;;;;;;;11.43;2.42;;;10.40;99.90;;;;;;5140883;27;20443;-73
2022/11/03 05:59:19;;;;;;;12.07;3.22;;;10.40;99.90;;;;;;5143093;27;20031;-73
2022/11/03 06:01:45;;;;;;;15.23;2.42;;;10.40;99.90;;;;;;5135600;27;20046;-72
2022/11/03 06:04:25;;;;;;;14.18;2.63;;;10.40;99.90;;;;;;5142225;27;20051;-73
2022/11/03 06:07:13;;;;;;;12.63;2.20;;;10.40;99.90;;;;;;5142735;27;20548;-72
2022/11/03 06:09:38;;;;;;;10.07;2.22;;;10.40;99.90;;;;;;5135862;27;20081;-72
2022/11/03 06:12:10;;;;;;;8.43;1.90;;;10.40;99.90;;;;;;5131447;27;20027;-72
2022/11/03 06:14:36;;;;;;;12.90;2.38;;;10.40;99.90;;;;;;5143603;27;20043;-72
2022/11/03 06:17:06;;;;;;;12.82;2.78;;;10.40;99.90;;;;;;4778322;27;9999826;-72
2022/11/03 06:19:34;;;;;;;13.73;2.88;;;10.40;99.90;;;;;;5139458;27;20047;-71
2022/11/03 06:22:10;;;;;;;12.98;3.10;;;10.40;99.90;;;;;;5122632;27;20404;-69
2022/11/03 06:24:35;;;;;;;12.57;2.17;;;10.40;99.90;;;;;;5104036;27;20052;-73
2022/11/03 06:27:01;;;;;;;8.73;1.50;;;11.50;99.90;;;;;;5119126;27;20047;-70
2022/11/03 06:29:31;;;;;;;9.32;2.38;;;10.40;99.90;;;;;;5141667;27;20379;-71
2022/11/03 06:31:57;;;;;;;11.13;2.40;;;10.40;99.90;;;;;;5120467;27;20074;-72
2022/11/03 06:34:49;;;;;;;10.35;2.13;;;10.40;99.90;;;;;;5108057;27;20074;-71
2022/11/03 06:37:19;;;;;;;10.25;2.25;;;10.40;99.90;;;;;;5142475;27;20057;-71
2022/11/03 06:39:45;;;;;;;14.38;2.85;;;10.40;99.90;;;;;;5127058;27;20698;-71
2022/11/03 06:42:13;;;;;;;8.27;2.72;;;10.40;99.90;;;;;;5142503;27;20043;-71
2022/11/03 06:44:44;;;;;;;14.32;2.80;;;10.40;99.90;;;;;;5104474;27;20027;-71
2022/11/03 06:47:26;;;;;;;10.40;2.58;;;10.50;99.90;;;;;;5095986;27;20047;-71
2022/11/03 06:49:55;;;;;;;9.15;2.10;;;10.40;99.90;;;;;;5121922;27;20122;-71
2022/11/03 06:52:33;;;;;;;11.25;3.10;;;10.50;99.90;;;;;;5129122;27;20047;-72
2022/11/03 06:55:08;;;;;;;11.10;2.03;;;10.50;99.90;;;;;;5106443;27;20566;-72
2022/11/03 06:57:37;;;;;;;8.48;2.10;;;10.50;99.90;;;;;;5123751;27;20050;-72
2022/11/03 07:00:18;;;;;;;9.20;2.40;;;10.50;99.90;;;;;;5105228;27;20043;-72
2022/11/03 07:02:52;;;;;;;11.98;2.22;;;10.50;99.90;;;;;;5143050;27;20699;-72
2022/11/03 07:05:22;;;;;;;;;;;10.50;99.90;;;;;;5145211;27;20038;-72
2022/11/03 07:07:49;;;;;;;11.90;2.55;;;10.50;99.90;;;;;;5142550;27;19984;-72
2022/11/03 07:10:15;;;;;;;15.13;2.47;;;10.50;99.90;;;;;;5127689;27;20051;-72
2022/11/03 07:12:41;;;;;;;8.25;1.80;;;10.50;99.90;;;;;;5142108;27;20039;-72
2022/11/03 07:15:21;;;;;;;9.93;3.30;;;10.50;99.90;;;;;;5125566;27;20035;-72
2022/11/03 07:17:47;;;;;;;9.65;2.22;;;10.50;99.90;;;;;;5124576;27;20370;-72
2022/11/03 07:20:15;;;;;;;14.77;3.22;;;10.50;99.90;;;;;;5141427;27;20046;-73
2022/11/03 07:22:42;;;;;;;9.38;1.88;;;10.50;99.90;;;;;;5113033;27;20588;-72
2022/11/03 07:25:16;;;;;;;10.98;2.35;;;10.50;99.90;;;;;;5122616;27;20046;-72
2022/11/03 07:27:42;;;;;;;10.45;1.98;;;10.50;99.90;;;;;;5143724;27;20107;-72
2022/11/03 07:30:24;;;;;;;11.60;1.95;;;10.50;99.90;;;;;;5127246;27;20485;-72
2022/11/03 07:32:56;;;;;;;15.13;2.78;;;9.50;99.90;;;;;;5143089;27;20057;-72
2022/11/03 07:35:33;;;;;;;15.93;2.58;;;10.60;99.90;;;;;;5115706;27;20073;-72
2022/11/03 07:38:07;;;;;;;9.57;2.47;;;10.60;99.90;;;;;;5123348;27;20046;-72
2022/11/03 07:40:33;;;;;;;12.82;2.20;;;10.70;99.90;;;;;;5140629;27;20141;-72
2022/11/03 07:43:08;;;;;;;11.63;2.50;;;10.60;99.90;;;;;;5126356;27;20051;-72
2022/11/03 07:45:41;;;;;;;13.07;2.78;;;10.70;99.90;;;;;;5120468;27;20126;-72
2022/11/03 07:48:44;;;;;;;13.35;2.70;;;10.70;99.90;;;;;;5127785;27;20043;-72
2022/11/03 07:51:31;;;;;;;9.52;2.60;;;10.80;99.90;;;;;;5119351;27;20512;-72
2022/11/03 07:54:22;;;;;;;10.20;2.15;;;10.80;99.90;;;;;;5106276;27;20046;-72
2022/11/03 07:56:52;;;;;;;11.90;2.92;;;10.80;99.90;;;;;;5128869;27;20035;-72
2022/11/03 07:59:22;;;;;;;13.68;3.03;;;10.80;99.90;;;;;;5124643;27;20027;-72
2022/11/03 08:01:53;;;;;;;12.73;2.42;;;10.80;99.90;;;;;;5142830;27;20149;-72
2022/11/03 08:04:29;;;;;;;9.88;2.20;;;10.90;99.90;;;;;;5121397;27;20035;-73
2022/11/03 08:06:54;;;;;;;9.38;2.67;;;10.90;99.90;;;;;;5145801;27;20070;-72
2022/11/03 08:09:20;;;;;;;10.25;2.75;;;10.90;99.90;;;;;;5141806;27;20077;-72
2022/11/03 08:11:46;;;;;;;9.88;2.22;;;11.00;99.90;;;;;;5120589;27;20038;-73
2022/11/03 08:14:12;;;;;;;9.68;2.83;;;11.00;99.90;;;;;;5143046;27;20030;-72
2022/11/03 08:16:38;;;;;;;15.90;2.60;;;11.00;99.90;;;;;;5125840;27;20043;-72
2022/11/03 08:19:04;;;;;;;8.05;2.03;;;11.00;99.90;;;;;;5138228;27;20037;-72
2022/11/03 08:21:30;;;;;;;10.43;2.35;;;11.10;99.90;;;;;;5127792;27;20081;-72
2022/11/03 08:23:58;;;;;;;9.90;2.35;;;11.20;99.90;;;;;;5141147;27;20031;-72
2022/11/03 08:26:24;;;;;;;13.45;2.13;;;11.20;99.90;;;;;;5123803;27;20128;-73
2022/11/03 08:28:50;;;;;;;8.82;2.08;;;11.20;99.90;;;;;;5123946;27;20446;-72
2022/11/03 08:31:15;;;;;;;9.45;2.83;;;11.30;99.90;;;;;;5139765;27;20045;-73
2022/11/03 08:33:41;;;;;;;11.32;2.53;;;11.30;99.90;;;;;;5121347;27;20092;-72
2022/11/03 08:36:08;;;;;;;12.23;2.47;;;11.90;99.90;;;;;;5128678;27;20042;-72
2022/11/03 08:38:33;;;;;;;15.32;3.08;;;11.40;99.90;;;;;;5119334;27;20490;-73
2022/11/03 08:40:59;;;;;;;13.30;2.30;;;11.50;99.90;;;;;;5145621;27;20039;-72
2022/11/03 08:43:25;;;;;;;14.00;2.97;;;11.50;99.90;;;;;;5139923;27;20049;-73
2022/11/03 08:45:52;;;;;;;15.30;2.80;;;11.60;99.90;;;;;;5133436;27;20066;-73
2022/11/03 08:48:22;;;;;;;13.02;2.60;;;11.90;99.90;;;;;;5126640;27;20061;-71
2022/11/03 08:50:53;;;;;;;11.65;2.60;;;11.70;99.90;;;;;;5143084;27;20039;-72
2022/11/03 08:53:19;;;;;;;10.85;2.92;;;11.70;99.90;;;;;;5099135;27;20789;-71
2022/11/03 08:55:44;;;;;;;11.45;1.98;;;11.80;99.90;;;;;;5124551;27;20043;-71
2022/11/03 08:58:10;;;;;;;9.23;2.03;;;11.80;99.90;;;;;;5148547;27;20053;-72
2022/11/03 09:00:36;;;;;;;9.40;2.08;;;11.80;99.90;;;;;;5142221;27;20042;-71
2022/11/03 09:03:01;;;;;;;10.35;2.60;;;11.90;99.90;;;;;;5113272;27;20039;-71
2022/11/03 09:05:27;;;;;;;31.38;19.65;;;11.90;99.90;;;;;;5130499;27;20041;-71
2022/11/03 09:07:52;;;;;;;12.80;4.85;;;11.90;99.90;;;;;;5104897;27;20118;-71
2022/11/03 09:10:18;;;;;;;12.15;2.33;;;12.40;99.90;;;;;;5130616;27;20085;-72
2022/11/03 09:12:44;;;;;;;11.50;2.40;;;12.00;99.90;;;;;;5142308;27;20092;-72
2022/11/03 09:15:10;;;;;;;15.20;3.10;;;12.00;99.90;;;;;;5148518;27;20046;-72
2022/11/03 09:17:36;;;;;;;14.25;2.83;;;12.00;99.90;;;;;;5123830;27;20051;-71
2022/11/03 09:20:02;;;;;;;14.73;3.25;;;12.00;99.90;;;;;;5130551;27;20442;-71
2022/11/03 09:22:28;;;;;;;8.88;2.88;;;12.10;99.90;;;;;;5106712;27;20043;-72
2022/11/03 09:24:53;;;;;;;11.38;2.42;;;12.10;99.90;;;;;;5141617;27;20098;-71
2022/11/03 09:27:19;;;;;;;12.25;2.53;;;12.40;99.90;;;;;;5111523;27;20053;-72
2022/11/03 09:29:44;;;;;;;11.45;2.97;;;12.20;99.90;;;;;;5126232;27;20043;-71
2022/11/03 09:32:10;;;;;;;9.55;2.20;;;12.20;99.90;;;;;;5142483;27;20498;-72
2022/11/03 09:34:36;;;;;;;12.25;2.47;;;12.20;99.90;;;;;;5113893;27;20079;-71
2022/11/03 09:37:02;;;;;;;10.38;2.20;;;12.40;99.90;;;;;;5124375;27;20118;-72
2022/11/03 09:39:27;;;;;;;10.77;2.60;;;12.30;99.90;;;;;;5144158;27;20031;-72
2022/11/03 09:41:56;;;;;;;9.32;2.20;;;12.60;99.90;;;;;;5145700;27;20132;-72
2022/11/03 09:44:22;;;;;;;8.30;1.90;;;12.40;99.90;;;;;;5107799;27;20042;-72
2022/11/03 09:46:50;;;;;;;14.10;3.17;;;13.10;99.90;;;;;;5150282;27;20080;-72
2022/11/03 09:49:18;;;;;;;11.55;3.03;;;12.50;99.90;;;;;;5106201;27;20443;-72
2022/11/03 09:51:44;;;;;;;12.50;2.58;;;12.60;99.90;;;;;;5113844;27;20043;-72
2022/11/03 09:54:14;;;;;;;9.88;2.95;;;12.60;99.90;;;;;;5121953;27;20104;-73
2022/11/03 09:56:40;;;;;;;11.55;2.13;;;12.70;99.90;;;;;;5136735;27;20504;-72
2022/11/03 09:59:20;;;;;;;9.68;3.10;;;12.70;99.90;;;;;;5125938;27;20043;-72
2022/11/03 10:01:48;;;;;;;7.00;1.90;;;12.80;99.90;;;;;;5138890;27;20125;-72
2022/11/03 10:04:26;;;;;;;12.90;2.17;;;12.90;99.90;;;;;;5142587;27;20497;-72
2022/11/03 10:06:52;;;;;;;9.27;2.75;;;13.00;99.90;;;;;;5101273;27;20084;-72
2022/11/03 10:09:19;;;;;;;11.00;4.15;;;13.00;99.90;;;;;;5128945;27;20073;-72
2022/11/03 10:11:46;;;;;;;7.10;2.03;;;13.00;99.90;;;;;;5128268;27;20054;-72
2022/11/03 10:14:15;;;;;;;10.30;2.13;;;13.00;99.90;;;;;;5107064;27;20038;-72
2022/11/03 10:16:41;;;;;;;14.10;2.60;;;13.10;99.90;;;;;;5143617;27;20043;-72
2022/11/03 10:19:15;;;;;;;13.68;3.03;;;13.10;99.90;;;;;;5126904;27;20046;-72
2022/11/03 10:21:42;;;;;;;11.18;2.70;;;13.20;99.90;;;;;;5125644;27;20041;-72
2022/11/03 10:24:11;;;;;;;12.98;2.38;;;13.20;99.90;;;;;;5125195;27;20493;-72
2022/11/03 10:26:47;;;;;;;8.93;2.10;;;13.20;99.90;;;;;;5143725;27;20042;-72
2022/11/03 10:29:24;;;;;;;9.70;2.60;;;13.20;99.90;;;;;;5151605;27;20045;-72
2022/11/03 10:31:53;;;;;;;8.85;2.50;;;13.30;99.90;;;;;;5139453;27;20047;-72
2022/11/03 10:34:24;;;;;;;13.68;2.35;;;14.30;99.90;;;;;;5148577;27;20064;-72
2022/11/03 10:37:19;;;;;;;14.23;2.65;;;13.30;99.90;;;;;;5120891;27;20042;-72
2022/11/03 10:39:46;;;;;;;5.55;1.85;;;13.40;99.90;;;;;;5122500;27;20047;-72
2022/11/03 10:42:22;;;;;;;11.80;2.60;;;13.40;99.90;;;;;;5121795;27;20047;-72
2022/11/03 10:44:51;;;;;;;8.55;1.92;;;13.40;99.90;;;;;;5116629;27;20031;-72
2022/11/03 10:47:21;;;;;;;7.75;2.53;;;13.50;99.90;;;;;;5145062;27;20039;-72
2022/11/03 10:49:47;;;;;;;11.23;2.60;;;13.60;99.90;;;;;;5118312;27;20389;-72
2022/11/03 10:52:24;;;;;;;9.38;2.90;;;13.80;99.90;;;;;;5135887;27;20076;-72
2022/11/03 10:54:53;;;;;;;8.98;3.00;;;13.60;99.90;;;;;;5146462;27;20070;-72
2022/11/03 10:57:20;;;;;;;11.52;2.40;;;13.70;99.90;;;;;;5109350;27;20402;-72
2022/11/03 10:59:48;;;;;;;11.70;2.67;;;13.80;99.90;;;;;;5126931;27;20030;-72
2022/11/03 11:02:23;;;;;;;8.23;1.90;;;13.80;99.90;;;;;;5119131;27;20047;-72
2022/11/03 11:04:56;;;;;;;8.05;1.65;;;13.80;99.90;;;;;;5118645;27;20126;-71
2022/11/03 11:07:49;;;;;;;10.88;2.05;;;13.90;99.90;;;;;;5143761;27;20061;-71
2022/11/03 11:10:23;;;;;;;8.25;2.25;;;13.90;99.90;;;;;;5143580;27;20043;-71
2022/11/03 11:13:17;;;;;;;16.20;2.80;;;14.10;99.90;;;;;;5124948;27;20486;-71
2022/11/03 11:15:50;;;;;;;12.35;2.35;;;14.20;99.90;;;;;;5145646;27;20055;-71
2022/11/03 11:18:39;;;;;;;11.15;1.90;;;14.20;99.90;;;;;;5122816;27;20103;-71
2022/11/03 11:21:18;;;;;;;8.80;3.20;;;14.70;99.90;;;;;;5100708;27;20062;-71
2022/11/03 11:23:44;;;;;;;8.02;1.70;;;14.40;99.90;;;;;;5144724;27;20050;-70
2022/11/03 11:26:29;;;;;;;8.00;2.08;;;14.90;99.90;;;;;;5122278;27;20589;-70
2022/11/03 11:29:10;;;;;;;10.65;1.88;;;14.40;99.90;;;;;;5126393;27;20055;-70
2022/11/03 11:31:39;;;;;;;9.40;1.80;;;14.50;99.90;;;;;;5147400;27;20070;-71
2022/11/03 11:34:08;;;;;;;6.88;1.73;;;14.90;99.90;;;;;;5144462;27;20404;-71
2022/11/03 11:36:44;;;;;;;7.05;2.25;;;14.50;99.90;;;;;;5125184;27;20042;-72
2022/11/03 11:39:11;;;;;;;6.22;2.00;;;14.60;99.90;;;;;;5129531;27;20565;-71
2022/11/03 11:42:11;;;;;;;9.70;2.05;;;14.60;99.90;;;;;;5144045;27;20076;-71
2022/11/03 11:44:53;;;;;;;8.30;1.88;;;14.60;99.90;;;;;;5147543;27;20054;-71
2022/11/03 11:47:39;;;;;;;8.85;2.35;;;14.60;99.90;;;;;;5119645;27;20097;-71
2022/11/03 11:50:08;;;;;;;4.93;2.00;;;14.60;99.90;;;;;;5149553;27;20046;-71
2022/11/03 11:52:57;;;;;;;8.00;1.83;;;14.70;99.90;;;;;;5127405;27;20039;-71
2022/11/03 11:55:49;;;;;;;7.38;1.60;;;14.60;99.90;;;;;;5146871;27;20047;-71
2022/11/03 11:58:38;;;;;;;7.90;2.22;;;14.60;99.90;;;;;;5126554;27;20047;-71
2022/11/03 12:01:19;;;;;;;12.00;2.55;;;14.60;99.90;;;;;;5112908;27;20034;-71
2022/11/03 12:03:45;;;;;;;9.48;1.85;;;14.60;99.90;;;;;;5110922;27;20047;-71
2022/11/03 12:06:12;;;;;;;8.43;2.22;;;14.60;99.90;;;;;;5113754;27;20035;-72
2022/11/03 12:08:39;;;;;;;8.38;2.17;;;14.60;99.90;;;;;;5145130;27;20054;-72
2022/11/03 12:11:06;;;;;;;9.05;1.90;;;14.60;99.90;;;;;;5146878;27;20042;-71
2022/11/03 12:13:43;;;;;;;8.82;2.55;;;14.60;99.90;;;;;;5147362;27;20047;-72
2022/11/03 12:16:24;;;;;;;11.45;2.28;;;14.60;99.90;;;;;;5122565;27;20071;-72
2022/11/03 12:18:51;;;;;;;7.20;1.90;;;14.60;99.90;;;;;;5145527;27;20046;-72
2022/11/03 12:21:48;;;;;;;10.52;1.40;;;14.60;99.90;;;;;;5125488;27;20038;-72
2022/11/03 12:24:29;;;;;;;8.18;1.80;;;14.60;99.90;;;;;;5119075;27;20052;-71
2022/11/03 12:26:55;;;;;;;8.13;1.67;;;14.60;99.90;;;;;;5124084;27;20042;-71
2022/11/03 12:29:21;;;;;;;11.05;1.63;;;14.60;99.90;;;;;;5126115;27;20066;-71
2022/11/03 12:31:47;;;;;;;7.63;1.85;;;14.60;99.90;;;;;;5125924;27;20548;-71
2022/11/03 12:34:13;;;;;;;6.63;2.13;;;14.60;99.90;;;;;;5108008;27;20094;-72
2022/11/03 12:36:39;;;;;;;6.60;1.50;;;14.90;99.90;;;;;;5128881;27;21234;-71
2022/11/03 12:39:05;;;;;;;6.88;1.95;;;14.90;99.90;;;;;;5144515;27;20576;-71
2022/11/03 12:41:30;;;;;;;5.75;1.33;;;14.60;99.90;;;;;;5128001;27;20046;-73
2022/11/03 12:43:56;;;;;;;12.35;2.05;;;14.60;99.90;;;;;;5123837;27;20066;-72
2022/11/03 12:46:22;;;;;;;9.07;2.17;;;14.90;99.90;;;;;;5124853;27;20023;-72
2022/11/03 12:48:48;;;;;;;9.13;1.70;;;14.60;99.90;;;;;;5145388;27;20050;-71
2022/11/03 12:51:18;;;;;;;8.63;1.90;;;14.80;99.90;;;;;;5137921;27;20050;-72
2022/11/03 12:53:44;;;;;;;8.90;2.92;;;14.60;99.90;;;;;;5126440;27;20042;-71
2022/11/03 12:56:11;;;;;;;6.72;1.88;;;14.70;99.90;;;;;;5121977;27;20465;-71
2022/11/03 12:58:37;;;;;;;7.47;2.00;;;14.70;99.90;;;;;;5130573;27;20042;-71
2022/11/03 13:01:04;;;;;;;6.65;1.70;;;14.70;99.90;;;;;;5122133;27;20070;-71
2022/11/03 13:03:31;;;;;;;4.97;1.70;;;14.70;99.90;;;;;;5105360;28;20043;-71
2022/11/03 13:05:57;;;;;;;8.40;1.98;;;14.70;99.90;;;;;;5125277;27;20034;-71
2022/11/03 13:08:23;;;;;;;9.48;1.48;;;14.70;99.90;;;;;;5127873;28;20083;-71
2022/11/03 13:10:49;;;;;;;6.18;1.55;;;14.80;99.90;;;;;;5145771;27;20038;-71
2022/11/03 13:13:15;;;;;;;7.05;1.75;;;14.70;99.90;;;;;;5128017;27;20039;-71
2022/11/03 13:15:41;;;;;;;7.20;1.80;;;14.70;99.90;;;;;;5129085;27;20043;-71